Terminal Aerodrome Forecast
Issued by NWS

Home | Current Version | Previous Version | Text Only | Print | Product List | Glossary On
Versions: 1 2 3 4 5 6 7 8 9 10 11 12 13 14 15 16 17 18 19 20 21
000
FTUS43 KDLH 251725
TAFHIB
TAF
KHIB 251725Z 2518/2618 02010KT P6SM OVC010
     FM252100 02013KT P6SM OVC007
     FM260300 02013G20KT 6SM -RA OVC007
     FM260600 03015G22KT 4SM FZRAPL OVC012
     FM261200 02017G25KT 2SM -SNPL OVC007=

USA.gov is the U.S. government's official web portal to all federal, state and local government web resources and services.